IGO364 VECC-VOBL
Flight info
| Callsign | IGO364 |
|---|---|
| Flight time | 2h 36m |
| Altitude | 38000 |
| Route | KAKID2C KAKID A465 VVZ W47 BBZ W153 TELUV TELUV7E |
| Aircraft | A20N/M-SDE2E3FGHIRWXY/LB1 |
Departure
| Time | 2026-04-23 14:07 |
|---|---|
| Airport | Netaji Subhash Chandra Bose International Airport (VECC) |
Arrival
| Time | 2026-04-23 16:43 |
|---|---|
| Airport | Kempegowda International Airport Bengaluru (VOBL) |
| Time | Latitude | Longitude | Altitude | Speed | Heading |
|---|---|---|---|---|---|
| 2026-04-23 13:33 | 22.64163 | 88.44022 | 30 ft | 0 kts | 262° |
| 2026-04-23 13:45 | 22.64165 | 88.44037 | 30 ft | 3 kts | 272° |
| 2026-04-23 13:46 | 22.64158 | 88.44057 | 30 ft | 3 kts | 300° |
| 2026-04-23 13:46 | 22.64151 | 88.44077 | 30 ft | 3 kts | 281° |
| 2026-04-23 13:46 | 22.64147 | 88.44098 | 30 ft | 3 kts | 280° |
| 2026-04-23 13:46 | 22.64140 | 88.44117 | 30 ft | 3 kts | 325° |
| 2026-04-23 13:47 | 22.64122 | 88.44124 | 30 ft | 3 kts | 356° |
| 2026-04-23 13:47 | 22.64119 | 88.44124 | 30 ft | 0 kts | 9° |
| 2026-04-23 13:52 | 22.64151 | 88.44128 | 30 ft | 13 kts | 5° |
| 2026-04-23 13:53 | 22.64249 | 88.44137 | 30 ft | 14 kts | 6° |
| 2026-04-23 13:53 | 22.64345 | 88.44145 | 30 ft | 14 kts | 2° |
| 2026-04-23 13:53 | 22.64430 | 88.44157 | 30 ft | 10 kts | 9° |
| 2026-04-23 13:53 | 22.64540 | 88.44172 | 30 ft | 22 kts | 6° |
| 2026-04-23 13:54 | 22.64568 | 88.44176 | 30 ft | 23 kts | 6° |
| 2026-04-23 13:58 | 22.64692 | 88.44190 | 30 ft | 22 kts | 7° |
| 2026-04-23 13:58 | 22.64844 | 88.44206 | 30 ft | 22 kts | 6° |
| 2026-04-23 13:59 | 22.64969 | 88.44235 | 30 ft | 18 kts | 8° |
| 2026-04-23 13:59 | 22.64983 | 88.44238 | 30 ft | 0 kts | 14° |
| 2026-04-23 13:59 | 22.64999 | 88.44247 | 30 ft | 18 kts | 28° |
| 2026-04-23 13:59 | 22.65020 | 88.44391 | 29 ft | 22 kts | 108° |
| 2026-04-23 14:00 | 22.65004 | 88.44493 | 29 ft | 19 kts | 68° |
| 2026-04-23 14:00 | 22.65129 | 88.44531 | 29 ft | 13 kts | 10° |
| 2026-04-23 14:00 | 22.65145 | 88.44533 | 29 ft | 12 kts | 7° |
| 2026-04-23 14:01 | 22.65184 | 88.44531 | 28 ft | 7 kts | 5° |
| 2026-04-23 14:01 | 22.65270 | 88.44542 | 29 ft | 16 kts | 7° |
| 2026-04-23 14:01 | 22.65364 | 88.44555 | 30 ft | 12 kts | 9° |
| 2026-04-23 14:01 | 22.65443 | 88.44566 | 31 ft | 15 kts | 6° |
| 2026-04-23 14:02 | 22.65592 | 88.44579 | 31 ft | 35 kts | 7° |
| 2026-04-23 14:02 | 22.65772 | 88.44607 | 31 ft | 42 kts | 8° |
| 2026-04-23 14:02 | 22.65948 | 88.44626 | 31 ft | 42 kts | 6° |
| 2026-04-23 14:02 | 22.66237 | 88.44660 | 28 ft | 42 kts | 6° |
| 2026-04-23 14:03 | 22.66525 | 88.44705 | 27 ft | 38 kts | 29° |
| 2026-04-23 14:03 | 22.66606 | 88.44808 | 28 ft | 0 kts | 51° |
| 2026-04-23 14:05 | 22.66611 | 88.44815 | 28 ft | 10 kts | 53° |
| 2026-04-23 14:05 | 22.66580 | 88.44908 | 28 ft | 13 kts | 187° |
| 2026-04-23 14:06 | 22.66548 | 88.44903 | 28 ft | 0 kts | 187° |
| 2026-04-23 14:06 | 22.66501 | 88.44897 | 28 ft | 18 kts | 186° |
| 2026-04-23 14:06 | 22.66257 | 88.44870 | 29 ft | 64 kts | 186° |
| 2026-04-23 14:07 | 22.65517 | 88.44783 | 32 ft | 150 kts | 186° |
| 2026-04-23 14:07 | 22.62934 | 88.44517 | 1111 ft | 193 kts | 188° |
| 2026-04-23 14:07 | 22.61579 | 88.44288 | 2063 ft | 203 kts | 188° |
| 2026-04-23 14:08 | 22.60137 | 88.43929 | 2777 ft | 222 kts | 197° |
| 2026-04-23 14:08 | 22.58624 | 88.43354 | 3406 ft | 242 kts | 200° |
| 2026-04-23 14:08 | 22.57024 | 88.42731 | 4359 ft | 246 kts | 201° |
| 2026-04-23 14:08 | 22.55373 | 88.42108 | 5320 ft | 251 kts | 201° |
| 2026-04-23 14:09 | 22.53687 | 88.41488 | 6011 ft | 269 kts | 201° |
| 2026-04-23 14:09 | 22.51861 | 88.40828 | 6810 ft | 281 kts | 201° |
| 2026-04-23 14:09 | 22.50009 | 88.40169 | 7454 ft | 284 kts | 201° |
| 2026-04-23 14:09 | 22.48105 | 88.39495 | 8098 ft | 291 kts | 201° |
| 2026-04-23 14:10 | 22.46170 | 88.38814 | 8832 ft | 295 kts | 202° |
| 2026-04-23 14:10 | 22.44210 | 88.38125 | 9611 ft | 298 kts | 202° |
| 2026-04-23 14:10 | 22.42210 | 88.37421 | 10122 ft | 310 kts | 202° |
| 2026-04-23 14:10 | 22.40090 | 88.36671 | 10374 ft | 331 kts | 201° |
| 2026-04-23 14:11 | 22.37841 | 88.35878 | 10677 ft | 347 kts | 201° |
| 2026-04-23 14:11 | 22.35513 | 88.35062 | 11182 ft | 355 kts | 200° |
| 2026-04-23 14:11 | 22.33150 | 88.34235 | 11763 ft | 359 kts | 200° |
| 2026-04-23 14:11 | 22.30761 | 88.33401 | 12364 ft | 363 kts | 200° |
| 2026-04-23 14:12 | 22.28340 | 88.32554 | 12962 ft | 367 kts | 199° |
| 2026-04-23 14:12 | 22.25898 | 88.31700 | 13565 ft | 372 kts | 199° |
| 2026-04-23 14:12 | 22.23424 | 88.30835 | 14102 ft | 376 kts | 199° |
| 2026-04-23 14:12 | 22.20927 | 88.29963 | 14674 ft | 379 kts | 198° |
| 2026-04-23 14:13 | 22.18409 | 88.29083 | 15265 ft | 381 kts | 198° |
| 2026-04-23 14:13 | 22.15877 | 88.28198 | 15887 ft | 384 kts | 198° |
| 2026-04-23 14:13 | 22.13332 | 88.27309 | 16516 ft | 386 kts | 198° |
| 2026-04-23 14:13 | 22.10773 | 88.26414 | 17149 ft | 388 kts | 198° |
| 2026-04-23 14:14 | 22.08200 | 88.25477 | 17739 ft | 391 kts | 198° |
| 2026-04-23 14:14 | 22.05620 | 88.24519 | 18274 ft | 393 kts | 198° |
| 2026-04-23 14:14 | 22.03055 | 88.23564 | 18725 ft | 397 kts | 199° |
| 2026-04-23 14:14 | 22.00438 | 88.22590 | 19216 ft | 399 kts | 199° |
| 2026-04-23 14:15 | 21.97811 | 88.21613 | 19730 ft | 400 kts | 200° |
| 2026-04-23 14:15 | 21.95170 | 88.20632 | 20252 ft | 402 kts | 200° |
| 2026-04-23 14:15 | 21.92523 | 88.19650 | 20782 ft | 403 kts | 201° |
| 2026-04-23 14:15 | 21.89861 | 88.18662 | 21323 ft | 405 kts | 201° |
| 2026-04-23 14:16 | 21.87192 | 88.17672 | 21845 ft | 407 kts | 201° |
| 2026-04-23 14:16 | 21.84508 | 88.16676 | 22377 ft | 409 kts | 201° |
| 2026-04-23 14:16 | 21.81803 | 88.15674 | 22904 ft | 411 kts | 201° |
| 2026-04-23 14:16 | 21.79091 | 88.14669 | 23410 ft | 413 kts | 202° |
| 2026-04-23 14:17 | 21.76368 | 88.13661 | 23846 ft | 415 kts | 202° |
| 2026-04-23 14:17 | 21.73626 | 88.12646 | 24289 ft | 417 kts | 202° |
| 2026-04-23 14:17 | 21.70882 | 88.11630 | 24733 ft | 418 kts | 202° |
| 2026-04-23 14:17 | 21.68124 | 88.10609 | 25178 ft | 419 kts | 203° |
| 2026-04-23 14:18 | 21.65431 | 88.09430 | 25613 ft | 417 kts | 210° |
| 2026-04-23 14:18 | 21.62941 | 88.07857 | 26034 ft | 414 kts | 219° |
| 2026-04-23 14:18 | 21.60764 | 88.05907 | 26455 ft | 412 kts | 227° |
| 2026-04-23 14:18 | 21.58739 | 88.03724 | 26876 ft | 412 kts | 229° |
| 2026-04-23 14:19 | 21.56753 | 88.01504 | 27298 ft | 412 kts | 230° |
| 2026-04-23 14:19 | 21.54769 | 87.99280 | 27711 ft | 413 kts | 230° |
| 2026-04-23 14:19 | 21.52779 | 87.97057 | 28114 ft | 414 kts | 230° |
| 2026-04-23 14:19 | 21.50778 | 87.94829 | 28504 ft | 414 kts | 230° |
| 2026-04-23 14:20 | 21.48779 | 87.92606 | 28886 ft | 415 kts | 230° |
| 2026-04-23 14:20 | 21.46767 | 87.90373 | 29269 ft | 416 kts | 230° |
| 2026-04-23 14:20 | 21.44756 | 87.88143 | 29653 ft | 416 kts | 230° |
| 2026-04-23 14:20 | 21.42739 | 87.85908 | 29982 ft | 417 kts | 230° |
| 2026-04-23 14:21 | 21.40713 | 87.83665 | 30286 ft | 418 kts | 230° |
| 2026-04-23 14:21 | 21.38688 | 87.81423 | 30622 ft | 417 kts | 230° |
| 2026-04-23 14:21 | 21.36673 | 87.79196 | 31055 ft | 415 kts | 230° |
| 2026-04-23 14:21 | 21.34667 | 87.76978 | 31496 ft | 412 kts | 230° |
| 2026-04-23 14:22 | 21.32680 | 87.74783 | 31916 ft | 409 kts | 230° |
| 2026-04-23 14:22 | 21.30723 | 87.72621 | 32306 ft | 407 kts | 230° |
| 2026-04-23 14:22 | 21.28732 | 87.70423 | 32706 ft | 405 kts | 230° |
| 2026-04-23 14:22 | 21.26798 | 87.68289 | 33086 ft | 404 kts | 230° |
| 2026-04-23 14:23 | 21.24846 | 87.66136 | 33460 ft | 402 kts | 230° |
| 2026-04-23 14:23 | 21.22897 | 87.63986 | 33812 ft | 401 kts | 230° |
| 2026-04-23 14:23 | 21.20955 | 87.61845 | 34108 ft | 400 kts | 230° |
| 2026-04-23 14:23 | 21.19017 | 87.59711 | 34388 ft | 399 kts | 230° |
| 2026-04-23 14:24 | 21.17083 | 87.57580 | 34663 ft | 398 kts | 230° |
| 2026-04-23 14:24 | 21.15156 | 87.55458 | 34941 ft | 397 kts | 230° |
| 2026-04-23 14:24 | 21.13226 | 87.53335 | 35219 ft | 397 kts | 230° |
| 2026-04-23 14:24 | 21.11305 | 87.51222 | 35493 ft | 396 kts | 230° |
| 2026-04-23 14:25 | 21.09387 | 87.49113 | 35774 ft | 395 kts | 230° |
| 2026-04-23 14:25 | 21.07473 | 87.47009 | 36012 ft | 394 kts | 230° |
| 2026-04-23 14:25 | 21.05580 | 87.44929 | 36267 ft | 393 kts | 230° |
| 2026-04-23 14:25 | 21.03647 | 87.42806 | 36515 ft | 393 kts | 230° |
| 2026-04-23 14:26 | 21.01765 | 87.40740 | 36747 ft | 392 kts | 230° |
| 2026-04-23 14:26 | 20.99859 | 87.38648 | 36976 ft | 392 kts | 230° |
| 2026-04-23 14:26 | 20.97958 | 87.36563 | 37215 ft | 391 kts | 230° |
| 2026-04-23 14:26 | 20.96060 | 87.34482 | 37446 ft | 390 kts | 230° |
| 2026-04-23 14:27 | 20.94163 | 87.32403 | 37672 ft | 390 kts | 230° |
| 2026-04-23 14:27 | 20.92262 | 87.30319 | 37752 ft | 393 kts | 230° |
| 2026-04-23 14:27 | 20.88411 | 87.26096 | 37761 ft | 401 kts | 230° |
| 2026-04-23 14:28 | 20.84466 | 87.21774 | 37758 ft | 410 kts | 230° |
| 2026-04-23 14:28 | 20.80430 | 87.17357 | 37754 ft | 419 kts | 230° |
| 2026-04-23 14:29 | 20.78388 | 87.15124 | 37912 ft | 417 kts | 230° |
| 2026-04-23 14:29 | 20.76385 | 87.12939 | 38551 ft | 407 kts | 230° |
| 2026-04-23 14:29 | 20.74410 | 87.10786 | 38788 ft | 405 kts | 230° |
| 2026-04-23 14:29 | 20.72460 | 87.08662 | 38698 ft | 395 kts | 230° |
| 2026-04-23 14:30 | 20.71194 | 87.07284 | 38551 ft | 390 kts | 230° |
| 2026-04-23 14:30 | 20.68705 | 87.04573 | 38224 ft | 382 kts | 230° |
| 2026-04-23 14:30 | 20.66849 | 87.02549 | 37956 ft | 382 kts | 230° |
| 2026-04-23 14:30 | 20.64987 | 87.00516 | 37768 ft | 383 kts | 230° |
| 2026-04-23 14:31 | 20.61321 | 86.96376 | 37759 ft | 384 kts | 231° |
| 2026-04-23 14:31 | 20.58304 | 86.92890 | 37761 ft | 384 kts | 231° |
| 2026-04-23 14:32 | 20.54673 | 86.88700 | 37761 ft | 384 kts | 231° |
| 2026-04-23 14:32 | 20.51030 | 86.84520 | 37753 ft | 385 kts | 231° |
| 2026-04-23 14:33 | 20.47380 | 86.80345 | 37756 ft | 385 kts | 231° |
| 2026-04-23 14:33 | 20.43729 | 86.76173 | 37758 ft | 385 kts | 231° |
| 2026-04-23 14:34 | 20.40079 | 86.72006 | 37757 ft | 385 kts | 231° |
| 2026-04-23 14:34 | 20.36424 | 86.67836 | 37758 ft | 385 kts | 231° |
| 2026-04-23 14:35 | 20.32764 | 86.63662 | 37761 ft | 385 kts | 231° |
| 2026-04-23 14:35 | 20.29116 | 86.59505 | 37761 ft | 384 kts | 231° |
| 2026-04-23 14:36 | 20.25461 | 86.55344 | 37759 ft | 384 kts | 231° |
| 2026-04-23 14:36 | 20.21808 | 86.51188 | 37760 ft | 385 kts | 231° |
| 2026-04-23 14:37 | 20.18173 | 86.47054 | 37761 ft | 385 kts | 231° |
| 2026-04-23 14:37 | 20.14513 | 86.42896 | 37758 ft | 385 kts | 231° |
| 2026-04-23 14:38 | 20.10849 | 86.38736 | 37762 ft | 385 kts | 231° |
| 2026-04-23 14:38 | 20.07181 | 86.34576 | 37762 ft | 385 kts | 231° |
| 2026-04-23 14:39 | 20.03535 | 86.30397 | 37760 ft | 385 kts | 231° |
| 2026-04-23 14:39 | 19.99934 | 86.26161 | 37764 ft | 386 kts | 232° |
| 2026-04-23 14:40 | 19.96343 | 86.21917 | 37762 ft | 386 kts | 232° |
| 2026-04-23 14:40 | 19.92740 | 86.17671 | 37761 ft | 386 kts | 231° |
| 2026-04-23 14:41 | 19.89107 | 86.13449 | 37764 ft | 387 kts | 231° |
| 2026-04-23 14:41 | 19.85424 | 86.09271 | 37765 ft | 387 kts | 230° |
| 2026-04-23 14:42 | 19.81755 | 86.05129 | 37765 ft | 387 kts | 230° |
| 2026-04-23 14:42 | 19.78061 | 86.00952 | 37766 ft | 387 kts | 231° |
| 2026-04-23 14:43 | 19.74378 | 85.96785 | 37767 ft | 387 kts | 230° |
| 2026-04-23 14:43 | 19.70699 | 85.92623 | 37770 ft | 386 kts | 230° |
| 2026-04-23 14:44 | 19.67020 | 85.88463 | 37768 ft | 386 kts | 230° |
| 2026-04-23 14:44 | 19.63365 | 85.84334 | 37768 ft | 386 kts | 230° |
| 2026-04-23 14:45 | 19.59688 | 85.80183 | 37773 ft | 386 kts | 230° |
| 2026-04-23 14:45 | 19.56007 | 85.76031 | 37776 ft | 386 kts | 230° |
| 2026-04-23 14:46 | 19.52333 | 85.71890 | 37774 ft | 385 kts | 230° |
| 2026-04-23 14:46 | 19.48665 | 85.67758 | 37770 ft | 385 kts | 230° |
| 2026-04-23 14:47 | 19.44991 | 85.63623 | 37773 ft | 385 kts | 230° |
| 2026-04-23 14:47 | 19.41316 | 85.59489 | 37771 ft | 385 kts | 230° |
| 2026-04-23 14:48 | 19.37646 | 85.55365 | 37770 ft | 384 kts | 230° |
| 2026-04-23 14:48 | 19.33971 | 85.51237 | 37769 ft | 384 kts | 230° |
| 2026-04-23 14:49 | 19.30309 | 85.47127 | 37773 ft | 384 kts | 230° |
| 2026-04-23 14:49 | 19.26647 | 85.43019 | 37770 ft | 384 kts | 230° |
| 2026-04-23 14:50 | 19.22983 | 85.38911 | 37768 ft | 383 kts | 230° |
| 2026-04-23 14:50 | 19.19322 | 85.34808 | 37769 ft | 383 kts | 230° |
| 2026-04-23 14:51 | 19.15667 | 85.30716 | 37767 ft | 383 kts | 230° |
| 2026-04-23 14:51 | 19.12075 | 85.26617 | 37767 ft | 381 kts | 234° |
| 2026-04-23 14:52 | 19.08763 | 85.22195 | 37767 ft | 381 kts | 235° |
| 2026-04-23 14:52 | 19.05559 | 85.17768 | 37767 ft | 381 kts | 235° |
| 2026-04-23 14:53 | 19.02348 | 85.13303 | 37767 ft | 381 kts | 235° |
| 2026-04-23 14:53 | 18.99131 | 85.08841 | 37770 ft | 382 kts | 235° |
| 2026-04-23 14:54 | 18.95910 | 85.04386 | 37769 ft | 382 kts | 235° |
| 2026-04-23 14:54 | 18.92681 | 84.99926 | 37769 ft | 382 kts | 235° |
| 2026-04-23 14:55 | 18.89449 | 84.95466 | 37774 ft | 382 kts | 235° |
| 2026-04-23 14:55 | 18.86241 | 84.91042 | 37772 ft | 382 kts | 235° |
| 2026-04-23 14:56 | 18.83014 | 84.86587 | 37772 ft | 382 kts | 235° |
| 2026-04-23 14:56 | 18.79809 | 84.82112 | 37770 ft | 382 kts | 235° |
| 2026-04-23 14:57 | 18.76615 | 84.77637 | 37774 ft | 381 kts | 235° |
| 2026-04-23 14:57 | 18.73418 | 84.73164 | 37774 ft | 381 kts | 235° |
| 2026-04-23 14:58 | 18.70221 | 84.68697 | 37777 ft | 381 kts | 235° |
| 2026-04-23 14:58 | 18.67043 | 84.64263 | 37771 ft | 381 kts | 235° |
| 2026-04-23 14:59 | 18.63839 | 84.59795 | 37772 ft | 381 kts | 235° |
| 2026-04-23 14:59 | 18.60642 | 84.55339 | 37781 ft | 381 kts | 235° |
| 2026-04-23 15:00 | 18.57440 | 84.50881 | 37782 ft | 381 kts | 235° |
| 2026-04-23 15:00 | 18.54241 | 84.46428 | 37785 ft | 381 kts | 234° |
| 2026-04-23 15:01 | 18.51038 | 84.41975 | 37783 ft | 381 kts | 234° |
| 2026-04-23 15:01 | 18.47832 | 84.37519 | 37784 ft | 381 kts | 234° |
| 2026-04-23 15:02 | 18.44651 | 84.33103 | 37781 ft | 381 kts | 234° |
| 2026-04-23 15:02 | 18.41445 | 84.28653 | 37784 ft | 381 kts | 234° |
| 2026-04-23 15:03 | 18.38238 | 84.24206 | 37793 ft | 381 kts | 234° |
| 2026-04-23 15:03 | 18.35030 | 84.19760 | 37788 ft | 381 kts | 234° |
| 2026-04-23 15:04 | 18.31821 | 84.15316 | 37791 ft | 381 kts | 234° |
| 2026-04-23 15:04 | 18.29863 | 84.12606 | 37789 ft | 381 kts | 234° |
| 2026-04-23 15:16 | 18.27527 | 84.09388 | 37789 ft | 382 kts | 233° |
| 2026-04-23 15:16 | 18.24325 | 84.04968 | 37790 ft | 382 kts | 234° |
| 2026-04-23 15:17 | 18.21123 | 84.00519 | 37792 ft | 382 kts | 234° |
| 2026-04-23 15:17 | 18.18463 | 83.96811 | 37792 ft | 382 kts | 234° |
| 2026-04-23 15:18 | 18.15265 | 83.92352 | 37791 ft | 382 kts | 234° |
| 2026-04-23 15:18 | 18.12066 | 83.87894 | 37788 ft | 382 kts | 234° |
| 2026-04-23 15:19 | 18.08865 | 83.83440 | 37788 ft | 382 kts | 233° |
| 2026-04-23 15:19 | 18.05663 | 83.78986 | 37785 ft | 382 kts | 233° |
| 2026-04-23 15:20 | 18.02460 | 83.74534 | 37789 ft | 382 kts | 233° |
| 2026-04-23 15:20 | 17.99254 | 83.70083 | 37788 ft | 382 kts | 233° |
| 2026-04-23 15:21 | 17.96055 | 83.65643 | 37788 ft | 381 kts | 233° |
| 2026-04-23 15:21 | 17.92869 | 83.61224 | 37789 ft | 381 kts | 233° |
| 2026-04-23 15:22 | 17.89665 | 83.56783 | 37795 ft | 381 kts | 233° |
| 2026-04-23 15:22 | 17.86459 | 83.52342 | 37791 ft | 381 kts | 233° |
| 2026-04-23 15:23 | 17.83252 | 83.47903 | 37797 ft | 381 kts | 233° |
| 2026-04-23 15:23 | 17.80044 | 83.43466 | 37801 ft | 382 kts | 233° |
| 2026-04-23 15:24 | 17.76833 | 83.39027 | 37799 ft | 382 kts | 233° |
| 2026-04-23 15:24 | 17.73626 | 83.34598 | 37801 ft | 382 kts | 233° |
| 2026-04-23 15:25 | 17.70414 | 83.30164 | 37802 ft | 382 kts | 233° |
| 2026-04-23 15:25 | 17.67301 | 83.25704 | 37801 ft | 381 kts | 238° |
| 2026-04-23 15:26 | 17.64815 | 83.20796 | 37801 ft | 382 kts | 242° |
| 2026-04-23 15:26 | 17.62505 | 83.15777 | 37800 ft | 382 kts | 243° |
| 2026-04-23 15:27 | 17.60229 | 83.10737 | 37800 ft | 382 kts | 243° |
| 2026-04-23 15:27 | 17.57946 | 83.05702 | 37803 ft | 382 kts | 243° |
| 2026-04-23 15:28 | 17.55649 | 83.00668 | 37804 ft | 383 kts | 243° |
| 2026-04-23 15:28 | 17.53351 | 82.95644 | 37803 ft | 383 kts | 243° |
| 2026-04-23 15:29 | 17.51047 | 82.90614 | 37808 ft | 383 kts | 243° |
| 2026-04-23 15:29 | 17.48742 | 82.85583 | 37805 ft | 383 kts | 243° |
| 2026-04-23 15:30 | 17.46434 | 82.80548 | 37805 ft | 383 kts | 243° |
| 2026-04-23 15:30 | 17.44124 | 82.75514 | 37810 ft | 383 kts | 243° |
| 2026-04-23 15:31 | 17.41812 | 82.70479 | 37810 ft | 384 kts | 243° |
| 2026-04-23 15:31 | 17.39512 | 82.65475 | 37808 ft | 384 kts | 243° |
| 2026-04-23 15:32 | 17.37193 | 82.60432 | 37813 ft | 384 kts | 243° |
| 2026-04-23 15:32 | 17.34870 | 82.55385 | 37810 ft | 384 kts | 242° |
| 2026-04-23 15:33 | 17.32561 | 82.50373 | 37810 ft | 384 kts | 243° |
| 2026-04-23 15:33 | 17.30238 | 82.45336 | 37811 ft | 385 kts | 242° |
| 2026-04-23 15:34 | 17.27909 | 82.40288 | 37824 ft | 385 kts | 242° |
| 2026-04-23 15:34 | 17.25582 | 82.35249 | 37826 ft | 385 kts | 242° |
| 2026-04-23 15:35 | 17.23248 | 82.30198 | 37823 ft | 385 kts | 242° |
| 2026-04-23 15:35 | 17.20916 | 82.25157 | 37824 ft | 385 kts | 242° |
| 2026-04-23 15:36 | 17.18581 | 82.20112 | 37826 ft | 385 kts | 242° |
| 2026-04-23 15:36 | 17.16243 | 82.15064 | 37824 ft | 386 kts | 242° |
| 2026-04-23 15:37 | 17.13885 | 82.10012 | 37825 ft | 386 kts | 242° |
| 2026-04-23 15:37 | 17.11512 | 82.04978 | 37824 ft | 386 kts | 242° |
| 2026-04-23 15:38 | 17.09138 | 81.99948 | 37827 ft | 386 kts | 242° |
| 2026-04-23 15:38 | 17.06771 | 81.94934 | 37828 ft | 386 kts | 242° |
| 2026-04-23 15:39 | 17.04391 | 81.89892 | 37827 ft | 387 kts | 242° |
| 2026-04-23 15:39 | 17.02009 | 81.84850 | 37827 ft | 387 kts | 242° |
| 2026-04-23 15:40 | 16.99627 | 81.79811 | 37826 ft | 387 kts | 242° |
| 2026-04-23 15:40 | 16.97244 | 81.74775 | 37825 ft | 387 kts | 242° |
| 2026-04-23 15:41 | 16.94854 | 81.69728 | 37826 ft | 387 kts | 242° |
| 2026-04-23 15:41 | 16.92465 | 81.64687 | 37823 ft | 387 kts | 242° |
| 2026-04-23 15:42 | 16.90074 | 81.59646 | 37825 ft | 387 kts | 242° |
| 2026-04-23 15:42 | 16.87683 | 81.54607 | 37819 ft | 387 kts | 242° |
| 2026-04-23 15:43 | 16.85305 | 81.49600 | 37822 ft | 387 kts | 242° |
| 2026-04-23 15:43 | 16.82909 | 81.44561 | 37819 ft | 387 kts | 242° |
| 2026-04-23 15:44 | 16.80516 | 81.39529 | 37822 ft | 387 kts | 242° |
| 2026-04-23 15:44 | 16.78112 | 81.34480 | 37820 ft | 387 kts | 242° |
| 2026-04-23 15:45 | 16.75713 | 81.29444 | 37824 ft | 387 kts | 241° |
| 2026-04-23 15:45 | 16.73313 | 81.24411 | 37823 ft | 388 kts | 241° |
| 2026-04-23 15:46 | 16.70910 | 81.19375 | 37826 ft | 388 kts | 241° |
| 2026-04-23 15:46 | 16.68523 | 81.14377 | 37824 ft | 387 kts | 241° |
| 2026-04-23 15:47 | 16.66121 | 81.09349 | 37825 ft | 388 kts | 241° |
| 2026-04-23 15:47 | 16.63713 | 81.04314 | 37825 ft | 388 kts | 241° |
| 2026-04-23 15:48 | 16.61303 | 80.99279 | 37825 ft | 388 kts | 241° |
| 2026-04-23 15:48 | 16.58896 | 80.94253 | 37830 ft | 388 kts | 241° |
| 2026-04-23 15:49 | 16.56484 | 80.89221 | 37829 ft | 388 kts | 241° |
| 2026-04-23 15:49 | 16.54037 | 80.84217 | 37830 ft | 387 kts | 238° |
| 2026-04-23 15:50 | 16.51157 | 80.79494 | 37832 ft | 386 kts | 235° |
| 2026-04-23 15:50 | 16.48172 | 80.74845 | 37830 ft | 386 kts | 234° |
| 2026-04-23 15:51 | 16.45159 | 80.70204 | 37829 ft | 386 kts | 234° |
| 2026-04-23 15:51 | 16.42154 | 80.65571 | 37828 ft | 386 kts | 234° |
| 2026-04-23 15:52 | 16.39171 | 80.60964 | 37830 ft | 386 kts | 234° |
| 2026-04-23 15:52 | 16.36166 | 80.56320 | 37834 ft | 386 kts | 234° |
| 2026-04-23 15:53 | 16.33162 | 80.51680 | 37839 ft | 386 kts | 234° |
| 2026-04-23 15:53 | 16.30159 | 80.47045 | 37837 ft | 386 kts | 234° |
| 2026-04-23 15:54 | 16.27150 | 80.42404 | 37841 ft | 386 kts | 234° |
| 2026-04-23 15:54 | 16.24142 | 80.37767 | 37842 ft | 386 kts | 234° |
| 2026-04-23 15:55 | 16.21127 | 80.33124 | 37847 ft | 386 kts | 234° |
| 2026-04-23 15:55 | 16.18116 | 80.28489 | 37850 ft | 387 kts | 234° |
| 2026-04-23 15:56 | 16.15119 | 80.23879 | 37854 ft | 387 kts | 234° |
| 2026-04-23 15:56 | 16.12089 | 80.19220 | 37855 ft | 387 kts | 234° |
| 2026-04-23 15:57 | 16.09092 | 80.14615 | 37862 ft | 385 kts | 234° |
| 2026-04-23 15:57 | 16.06097 | 80.10015 | 37861 ft | 383 kts | 234° |
| 2026-04-23 15:58 | 16.03108 | 80.05430 | 37867 ft | 383 kts | 234° |
| 2026-04-23 15:58 | 16.00114 | 80.00838 | 37867 ft | 384 kts | 234° |
| 2026-04-23 15:59 | 15.97119 | 79.96248 | 37869 ft | 384 kts | 234° |
| 2026-04-23 15:59 | 15.94122 | 79.91659 | 37873 ft | 384 kts | 234° |
| 2026-04-23 16:00 | 15.91122 | 79.87066 | 37868 ft | 384 kts | 234° |
| 2026-04-23 16:00 | 15.88121 | 79.82476 | 37868 ft | 384 kts | 234° |
| 2026-04-23 16:01 | 15.85136 | 79.77912 | 37869 ft | 384 kts | 234° |
| 2026-04-23 16:01 | 15.82129 | 79.73318 | 37870 ft | 385 kts | 234° |
| 2026-04-23 16:02 | 15.79115 | 79.68717 | 37870 ft | 385 kts | 234° |
| 2026-04-23 16:02 | 15.76102 | 79.64119 | 37870 ft | 385 kts | 234° |
| 2026-04-23 16:03 | 15.73083 | 79.59515 | 37873 ft | 386 kts | 234° |
| 2026-04-23 16:03 | 15.70068 | 79.54919 | 37875 ft | 386 kts | 234° |
| 2026-04-23 16:04 | 15.67043 | 79.50312 | 37877 ft | 386 kts | 233° |
| 2026-04-23 16:04 | 15.64018 | 79.45708 | 37875 ft | 386 kts | 233° |
| 2026-04-23 16:05 | 15.61504 | 79.41883 | 37875 ft | 386 kts | 233° |
| 2026-04-23 16:05 | 15.58469 | 79.37269 | 37878 ft | 387 kts | 234° |
| 2026-04-23 16:06 | 15.54939 | 79.31905 | 37876 ft | 387 kts | 234° |
| 2026-04-23 16:06 | 15.51903 | 79.27296 | 37878 ft | 387 kts | 234° |
| 2026-04-23 16:07 | 15.49376 | 79.23460 | 37880 ft | 387 kts | 234° |
| 2026-04-23 16:07 | 15.46337 | 79.18849 | 37880 ft | 387 kts | 234° |
| 2026-04-23 16:08 | 15.43300 | 79.14232 | 37877 ft | 387 kts | 234° |
| 2026-04-23 16:08 | 15.40272 | 79.09628 | 37879 ft | 387 kts | 234° |
| 2026-04-23 16:09 | 15.37234 | 79.05014 | 37881 ft | 387 kts | 234° |
| 2026-04-23 16:09 | 15.34220 | 79.00438 | 37879 ft | 387 kts | 234° |
| 2026-04-23 16:10 | 15.31184 | 78.95832 | 37880 ft | 387 kts | 234° |
| 2026-04-23 16:10 | 15.28191 | 78.91295 | 37880 ft | 387 kts | 234° |
| 2026-04-23 16:11 | 15.25153 | 78.86692 | 37879 ft | 387 kts | 234° |
| 2026-04-23 16:11 | 15.22070 | 78.82024 | 37883 ft | 386 kts | 234° |
| 2026-04-23 16:12 | 15.19044 | 78.77444 | 37876 ft | 386 kts | 234° |
| 2026-04-23 16:12 | 15.15992 | 78.72829 | 37873 ft | 387 kts | 234° |
| 2026-04-23 16:13 | 15.12950 | 78.68230 | 37889 ft | 387 kts | 234° |
| 2026-04-23 16:13 | 15.09433 | 78.64055 | 37887 ft | 385 kts | 220° |
| 2026-04-23 16:13 | 15.07291 | 78.62406 | 37886 ft | 385 kts | 213° |
| 2026-04-23 16:14 | 15.02559 | 78.59835 | 39249 ft | 394 kts | 207° |
| 2026-04-23 16:14 | 15.00127 | 78.58655 | 39012 ft | 404 kts | 206° |
| 2026-04-23 16:14 | 14.97536 | 78.57432 | 38762 ft | 415 kts | 205° |
| 2026-04-23 16:15 | 14.94876 | 78.56183 | 38516 ft | 425 kts | 205° |
| 2026-04-23 16:15 | 14.92164 | 78.54907 | 38258 ft | 429 kts | 205° |
| 2026-04-23 16:15 | 14.89450 | 78.53621 | 38140 ft | 429 kts | 205° |
| 2026-04-23 16:15 | 14.86735 | 78.52327 | 38131 ft | 429 kts | 206° |
| 2026-04-23 16:16 | 14.81331 | 78.49738 | 38133 ft | 428 kts | 206° |
| 2026-04-23 16:16 | 14.78698 | 78.48475 | 36721 ft | 418 kts | 206° |
| 2026-04-23 16:16 | 14.76118 | 78.47240 | 36967 ft | 401 kts | 207° |
| 2026-04-23 16:17 | 14.73617 | 78.46042 | 37228 ft | 392 kts | 207° |
| 2026-04-23 16:17 | 14.71150 | 78.44859 | 37489 ft | 389 kts | 207° |
| 2026-04-23 16:17 | 14.68695 | 78.43680 | 37755 ft | 388 kts | 207° |
| 2026-04-23 16:17 | 14.66239 | 78.42499 | 37885 ft | 390 kts | 207° |
| 2026-04-23 16:18 | 14.61324 | 78.40133 | 37889 ft | 390 kts | 207° |
| 2026-04-23 16:18 | 14.56408 | 78.37768 | 37891 ft | 390 kts | 207° |
| 2026-04-23 16:19 | 14.51496 | 78.35408 | 37898 ft | 390 kts | 207° |
| 2026-04-23 16:19 | 14.46577 | 78.33047 | 37900 ft | 390 kts | 207° |
| 2026-04-23 16:20 | 14.41671 | 78.30693 | 37907 ft | 393 kts | 207° |
| 2026-04-23 16:20 | 14.36710 | 78.28314 | 37908 ft | 393 kts | 207° |
| 2026-04-23 16:21 | 14.31746 | 78.25935 | 37916 ft | 393 kts | 207° |
| 2026-04-23 16:21 | 14.26787 | 78.23580 | 37896 ft | 391 kts | 206° |
| 2026-04-23 16:22 | 14.24346 | 78.22456 | 37871 ft | 377 kts | 206° |
| 2026-04-23 16:22 | 14.21979 | 78.21372 | 37600 ft | 370 kts | 206° |
| 2026-04-23 16:22 | 14.19610 | 78.20285 | 36859 ft | 376 kts | 206° |
| 2026-04-23 16:22 | 14.17208 | 78.19182 | 36251 ft | 378 kts | 206° |
| 2026-04-23 16:23 | 14.14810 | 78.18053 | 35645 ft | 380 kts | 206° |
| 2026-04-23 16:23 | 14.12394 | 78.16896 | 34957 ft | 385 kts | 206° |
| 2026-04-23 16:23 | 14.09949 | 78.15722 | 34283 ft | 389 kts | 205° |
| 2026-04-23 16:23 | 14.07486 | 78.14539 | 33532 ft | 393 kts | 205° |
| 2026-04-23 16:24 | 14.04990 | 78.13343 | 32732 ft | 396 kts | 206° |
| 2026-04-23 16:24 | 14.02486 | 78.12142 | 31984 ft | 399 kts | 206° |
| 2026-04-23 16:24 | 13.99960 | 78.10931 | 31204 ft | 402 kts | 207° |
| 2026-04-23 16:24 | 13.97409 | 78.09709 | 30393 ft | 406 kts | 207° |
| 2026-04-23 16:25 | 13.94868 | 78.08491 | 29526 ft | 410 kts | 207° |
| 2026-04-23 16:25 | 13.92296 | 78.07259 | 28930 ft | 405 kts | 207° |
| 2026-04-23 16:25 | 13.89746 | 78.06038 | 28335 ft | 401 kts | 207° |
| 2026-04-23 16:25 | 13.87226 | 78.04832 | 27728 ft | 398 kts | 207° |
| 2026-04-23 16:26 | 13.84718 | 78.03632 | 27098 ft | 396 kts | 207° |
| 2026-04-23 16:26 | 13.82220 | 78.02436 | 26475 ft | 394 kts | 207° |
| 2026-04-23 16:26 | 13.79739 | 78.01249 | 25859 ft | 393 kts | 207° |
| 2026-04-23 16:26 | 13.77265 | 78.00065 | 25238 ft | 393 kts | 207° |
| 2026-04-23 16:27 | 13.74781 | 77.98877 | 24615 ft | 392 kts | 207° |
| 2026-04-23 16:27 | 13.72307 | 77.97694 | 23975 ft | 394 kts | 207° |
| 2026-04-23 16:27 | 13.69817 | 77.96504 | 23280 ft | 395 kts | 207° |
| 2026-04-23 16:27 | 13.67329 | 77.95315 | 22578 ft | 394 kts | 206° |
| 2026-04-23 16:28 | 13.64848 | 77.94135 | 21935 ft | 392 kts | 206° |
| 2026-04-23 16:28 | 13.62406 | 77.92979 | 21281 ft | 391 kts | 206° |
| 2026-04-23 16:28 | 13.59909 | 77.91798 | 20605 ft | 390 kts | 206° |
| 2026-04-23 16:28 | 13.57448 | 77.90634 | 19944 ft | 389 kts | 205° |
| 2026-04-23 16:29 | 13.55022 | 77.89487 | 19290 ft | 388 kts | 205° |
| 2026-04-23 16:29 | 13.52566 | 77.88326 | 18623 ft | 388 kts | 205° |
| 2026-04-23 16:29 | 13.50105 | 77.87163 | 17921 ft | 389 kts | 205° |
| 2026-04-23 16:29 | 13.47651 | 77.86004 | 17216 ft | 387 kts | 205° |
| 2026-04-23 16:30 | 13.45210 | 77.84850 | 16692 ft | 382 kts | 205° |
| 2026-04-23 16:30 | 13.42847 | 77.83735 | 16563 ft | 365 kts | 205° |
| 2026-04-23 16:30 | 13.40593 | 77.82670 | 16456 ft | 349 kts | 205° |
| 2026-04-23 16:30 | 13.38438 | 77.81653 | 16339 ft | 334 kts | 205° |
| 2026-04-23 16:31 | 13.36367 | 77.80675 | 16227 ft | 321 kts | 205° |
| 2026-04-23 16:31 | 13.34376 | 77.79736 | 16107 ft | 308 kts | 205° |
| 2026-04-23 16:31 | 13.32531 | 77.78701 | 15955 ft | 298 kts | 219° |
| 2026-04-23 16:31 | 13.31294 | 77.77081 | 15789 ft | 286 kts | 250° |
| 2026-04-23 16:32 | 13.30942 | 77.75107 | 15511 ft | 280 kts | 269° |
| 2026-04-23 16:32 | 13.30931 | 77.73113 | 15152 ft | 280 kts | 272° |
| 2026-04-23 16:32 | 13.30973 | 77.71117 | 14801 ft | 279 kts | 272° |
| 2026-04-23 16:32 | 13.31014 | 77.69124 | 14470 ft | 279 kts | 272° |
| 2026-04-23 16:33 | 13.31045 | 77.67137 | 14154 ft | 278 kts | 272° |
| 2026-04-23 16:33 | 13.31070 | 77.65164 | 13868 ft | 275 kts | 272° |
| 2026-04-23 16:33 | 13.31089 | 77.63219 | 13487 ft | 275 kts | 272° |
| 2026-04-23 16:33 | 13.31108 | 77.61204 | 12787 ft | 287 kts | 272° |
| 2026-04-23 16:34 | 13.31127 | 77.59110 | 12048 ft | 299 kts | 272° |
| 2026-04-23 16:34 | 13.31144 | 77.56927 | 11273 ft | 311 kts | 272° |
| 2026-04-23 16:34 | 13.31162 | 77.54670 | 10471 ft | 322 kts | 272° |
| 2026-04-23 16:34 | 13.31180 | 77.52364 | 9700 ft | 330 kts | 272° |
| 2026-04-23 16:35 | 13.31197 | 77.50016 | 9125 ft | 328 kts | 272° |
| 2026-04-23 16:35 | 13.31169 | 77.47738 | 8959 ft | 312 kts | 264° |
| 2026-04-23 16:35 | 13.30433 | 77.45709 | 8723 ft | 301 kts | 234° |
| 2026-04-23 16:35 | 13.28855 | 77.44301 | 8010 ft | 307 kts | 205° |
| 2026-04-23 16:36 | 13.26763 | 77.43821 | 7154 ft | 314 kts | 181° |
| 2026-04-23 16:36 | 13.24563 | 77.43789 | 6494 ft | 317 kts | 178° |
| 2026-04-23 16:36 | 13.22456 | 77.44198 | 6129 ft | 303 kts | 152° |
| 2026-04-23 16:36 | 13.20951 | 77.45556 | 6007 ft | 281 kts | 120° |
| 2026-04-23 16:37 | 13.20448 | 77.47382 | 6024 ft | 259 kts | 92° |
| 2026-04-23 16:37 | 13.20523 | 77.49174 | 6017 ft | 242 kts | 86° |
| 2026-04-23 16:37 | 13.20680 | 77.50831 | 6024 ft | 226 kts | 82° |
| 2026-04-23 16:37 | 13.20843 | 77.52386 | 5995 ft | 214 kts | 89° |
| 2026-04-23 16:38 | 13.20836 | 77.53915 | 5790 ft | 213 kts | 92° |
| 2026-04-23 16:38 | 13.20817 | 77.55418 | 5536 ft | 208 kts | 92° |
| 2026-04-23 16:38 | 13.20814 | 77.56889 | 5214 ft | 204 kts | 92° |
| 2026-04-23 16:38 | 13.20804 | 77.58316 | 4961 ft | 197 kts | 93° |
| 2026-04-23 16:39 | 13.20792 | 77.59707 | 4721 ft | 191 kts | 93° |
| 2026-04-23 16:39 | 13.20783 | 77.60809 | 4517 ft | 186 kts | 94° |
| 2026-04-23 16:41 | 13.20776 | 77.61588 | 4364 ft | 183 kts | 93° |
| 2026-04-23 16:41 | 13.20765 | 77.62888 | 4150 ft | 182 kts | 93° |
| 2026-04-23 16:41 | 13.20755 | 77.64161 | 3939 ft | 169 kts | 93° |
| 2026-04-23 16:41 | 13.20751 | 77.64684 | 3834 ft | 161 kts | 94° |
| 2026-04-23 16:42 | 13.20747 | 77.65137 | 3742 ft | 155 kts | 92° |
| 2026-04-23 16:42 | 13.20737 | 77.66228 | 3530 ft | 152 kts | 92° |
| 2026-04-23 16:42 | 13.20727 | 77.67314 | 3317 ft | 153 kts | 92° |
| 2026-04-23 16:43 | 13.20718 | 77.68404 | 3109 ft | 153 kts | 91° |
| 2026-04-23 16:43 | 13.20708 | 77.69462 | 3014 ft | 133 kts | 90° |
| 2026-04-23 16:43 | 13.20707 | 77.70166 | 3014 ft | 57 kts | 90° |
| 2026-04-23 16:43 | 13.20684 | 77.70437 | 3014 ft | 27 kts | 105° |
| 2026-04-23 16:44 | 13.20629 | 77.70570 | 3014 ft | 8 kts | 120° |
| 2026-04-23 16:44 | 13.20599 | 77.70617 | 3014 ft | 8 kts | 131° |
| 2026-04-23 16:44 | 13.20596 | 77.70621 | 3014 ft | 0 kts | 131° |
| 2026-04-23 16:44 | 13.20555 | 77.70699 | 3016 ft | 17 kts | 115° |
| 2026-04-23 16:45 | 13.20529 | 77.70816 | 3014 ft | 17 kts | 93° |
| 2026-04-23 16:45 | 13.20500 | 77.70880 | 3014 ft | 9 kts | 163° |
| 2026-04-23 16:45 | 13.20483 | 77.70882 | 3014 ft | 1 kts | 180° |
| 2026-04-23 16:45 | 13.20474 | 77.70882 | 3014 ft | 1 kts | 182° |
| 2026-04-23 16:46 | 13.20469 | 77.70881 | 3014 ft | 0 kts | 187° |
| 2026-04-23 16:46 | 13.20444 | 77.70904 | 3014 ft | 12 kts | 119° |
| 2026-04-23 16:46 | 13.20444 | 77.70979 | 3014 ft | 11 kts | 89° |
| 2026-04-23 16:46 | 13.20441 | 77.71044 | 3017 ft | 6 kts | 115° |
| 2026-04-23 16:47 | 13.20412 | 77.71046 | 3014 ft | 4 kts | 186° |
| 2026-04-23 16:47 | 13.20402 | 77.71046 | 3014 ft | 0 kts | 183° |